ヤクーツク空港の過去48時間の天気

ヤクーツク空港 (Jakutsk)

現在時刻: 9/28 18:32 +09 (9/28 09:32 UTC) 以下の時間は現地時間です。

過去48時間のMETAR気象情報
時間 風向 風速(m/s) 視程 気温(℃) 湿度(%) 気圧(hPa) 天気現象
28 18:00 西北西 4 5000m 8 81 1001
28 17:30 西北西 4 5000m 8 81 1001
28 17:00 北西 3 5000m 9 76 1001
28 16:30 北西 2 5000m 10 71 1000
28 16:00 北北西 3 5000m 10 71 1000
28 15:30 北西 3 5000m 10 71 1000
28 15:00 北北西 2 5000m 10 71 1000
28 14:30 北西 3 5000m 10 76 1000
28 14:00 西北西 2 5000m 10 76 1000
28 13:30 北西 2 10km以上 10 71 1000
28 13:00 西北西 1 10km以上 10 71 999
28 12:30 西 1 10km以上 10 71 999
28 12:00 北西 1 10km以上 10 71 999
28 11:30 北北西 1 10km以上 10 76 999
28 11:00 北西 3 10km以上 9 81 1000
28 10:30 北北西 1 10km以上 9 81 999
28 10:00 西北西 3 10km以上 8 81 999
28 09:30 西 2 10km以上 7 87 1000
28 09:00 北東 1 10km以上 6 87 999
28 08:30 南東 1 10km以上 6 87 999
28 08:00 南南西 2 10km以上 5 93 999
28 07:30 南南西 1 10km以上 4 93 999
28 07:00 南西 2 10km以上 3 93 998
28 06:30 2 10km以上 4 93 998
28 06:00 南南東 2 10km以上 5 93 998
28 05:30 3 10km以上 5 93 998
28 05:00 西南西 2 10km以上 4 93 998
28 04:30 2 10km以上 5 87 998
28 04:00 3 10km以上 6 87 998
28 03:30 2 10km以上 6 87 997
28 03:00 3 10km以上 7 87 997
28 02:30 3 10km以上 8 81 997
28 02:00 3 10km以上 9 81 997
28 01:30 2 10km以上 9 81 997
28 01:00 4 10km以上 10 82 997
28 00:30 3 10km以上 10 82 996
28 00:00 3 10km以上 10 87 996
27 23:30 4 10km以上 11 87 996
27 23:00 3 10km以上 12 82 996
27 22:30 3 10km以上 12 82 996
27 22:00 4 10km以上 12 88 996
27 21:30 2 5000m 12 88 996
27 21:00 2 2400m 11 94 996
27 20:30 2 2100m 11 94 996
27 20:00 2 2100m 11 87 996 弱いしゅう雨 煙
27 19:30 東南東 2 2100m 12 88 996 弱いしゅう雨 煙
27 19:00 東南東 2 2100m 12 88 996 弱いしゅう雨 煙
27 18:30 南西 2 2100m 12 88 997 弱いしゅう雨 煙
27 18:00 3 2100m 13 77 997 弱いしゅう雨 煙
27 17:30 南南東 4 2100m 14 67 997 弱いしゅう雨 煙
27 17:00 南南東 4 2100m 15 59 997 弱いしゅう雨 煙
27 16:30 南南東 3 2100m 16 51 997
27 16:00 南東 3 2100m 16 51 997
27 15:30 南南東 3 2100m 16 51 997
27 15:00 2 2100m 16 51 997
27 14:30 南南東 3 1900m 16 48 998
27 14:00 南南東 3 1900m 15 51 998
27 13:30 南東 2 1600m 13 62 998
27 13:00 東南東 1 1600m 13 62 999
27 12:30 南東 1 1700m 13 58 999
27 12:00 南東 2 1700m 12 62 999
27 11:30 南東 1 1300m 12 62 1000
27 11:00 静穏 0 1300m 11 71 1000
27 10:30 南南東 2 1300m 11 67 1001
27 10:00 南南東 2 1300m 11 67 1001
27 09:30 3 1500m 11 67 1002
27 09:00 南南東 3 1900m 11 67 1002
27 08:30 南南東 4 1900m 11 71 1002
27 08:00 南南東 3 2400m 10 82 1002
27 07:30 3 3200m 10 76 1003 弱いしゅう雨 煙
27 07:00 3 2400m 11 71 1003
27 06:30 4 2400m 11 67 1003
27 06:00 3 1900m 11 67 1004
27 05:30 南東 3 2100m 10 76 1004
27 05:00 3 5000m 10 76 1004 弱いしゅう雨
27 04:30 南東 3 10km以上 10 82 1005 弱いしゅう雨
27 04:00 南南東 4 10km以上 10 82 1005 弱いしゅう雨
27 03:30 3 10km以上 11 76 1006 弱いしゅう雨
27 03:00 3 10km以上 11 71 1006 弱いしゅう雨
27 02:30 7 5000m 13 54 1006
27 02:00 5 5000m 14 41 1006
27 01:30 南南東 5 5000m 14 41 1006
27 01:00 南南東 5 5000m 14 44 1007
27 00:30 南東 4 5000m 14 44 1007
27 00:00 南東 4 3200m 14 44 1007
26 23:30 南東 4 3200m 14 41 1007
26 23:00 南東 4 3200m 14 44 1008
26 22:30 南東 4 2400m 14 44 1008
26 22:00 南東 4 2400m 14 44 1009
26 21:30 南東 5 2400m 14 44 1009
26 21:00 南東 4 2400m 14 44 1009
26 20:30 東南東 4 2400m 14 47 1010 弱いしゅう雨 煙
26 20:00 南東 4 2400m 14 47 1010 弱いしゅう雨 煙
26 19:30 南東 2 1800m 14 47 1011
26 19:00 南東 4 1800m 14 47 1011
UEEE 280900Z 30004MPS 5000 FU SCT040CB 08/05 Q1001 R23L/09//60 NOSIG RMK QFE742
UEEE 280830Z 30004MPS 5000 FU SCT040CB 08/05 Q1001 R23L/09//60 NOSIG RMK QFE742
UEEE 280800Z 32003MPS 5000 FU SCT040CB 09/05 Q1001 R23L/09//60 NOSIG RMK QFE742
UEEE 280730Z 32002MPS 5000 FU SCT030CB 10/05 Q1000 R23L/09//60 NOSIG RMK QFE742
UEEE 280700Z 33003MPS 5000 FU SCT030CB 10/05 Q1000 R23L/190155 NOSIG RMK QFE742
UEEE 280630Z 31003MPS 5000 FU SCT027CB 10/05 Q1000 R23L/190155 NOSIG RMK QFE741
UEEE 280600Z 33002MPS 5000 FU SCT024CB 10/05 Q1000 R23L/190155 NOSIG RMK QFE741
UEEE 280530Z 32003MPS 5000 FU SCT024CB 10/06 Q1000 R23L/190155 NOSIG RMK QFE741
UEEE 280500Z 29002MPS 5000 FU SCT030CB 10/06 Q1000 R23L/190155 NOSIG RMK QFE741
UEEE 280430Z 32002MPS 9999 SCT023CB 10/05 Q1000 R23L/190155 NOSIG RMK QFE741
UEEE 280400Z 30001MPS 9999 SCT023CB 10/05 Q0999 R23L/190155 NOSIG RMK QFE741
UEEE 280330Z 27001MPS 9999 SCT020CB 10/05 Q0999 R23L/190155 NOSIG RMK QFE741
UEEE 280300Z 32001MPS 9999 SCT020CB 10/05 Q0999 R23L/190155 NOSIG RMK QFE741
UEEE 280230Z 34001MPS 9999 SCT020CB 10/06 Q0999 R23L/190155 NOSIG RMK QFE741
UEEE 280200Z 31003MPS 9999 SCT020CB 09/06 Q1000 R23L/190155 NOSIG RMK QFE741
UEEE 280130Z 33001MPS 9999 SCT020CB 09/06 Q0999 R23L/190155 NOSIG RMK QFE741
UEEE 280100Z 29003MPS 9999 VV017 08/05 Q0999 R23L/190155 NOSIG RMK QFE741
UEEE 280030Z 28002MPS CAVOK 07/05 Q1000 R23L/190155 NOSIG RMK QFE741
UEEE 280000Z 04001MPS CAVOK 06/04 Q0999 R23L/190155 NOSIG RMK QFE741
UEEE 272330Z 14001MPS CAVOK 06/04 Q0999 R23L/190155 NOSIG RMK QFE741
UEEE 272300Z 20002MPS CAVOK 05/04 Q0999 R23L/190155 NOSIG RMK QFE740
UEEE 272230Z 20001MPS CAVOK 04/03 Q0999 R23L/190155 NOSIG RMK QFE740
UEEE 272200Z 22002MPS CAVOK 03/02 Q0998 R23L/190155 NOSIG RMK QFE740
UEEE 272130Z 17002MPS 160V230 CAVOK 04/03 Q0998 R23L/190155 NOSIG RMK QFE740
UEEE 272100Z 16002MPS CAVOK 05/04 Q0998 R23L/190155 NOSIG RMK QFE740
UEEE 272030Z 17003MPS CAVOK 05/04 Q0998 R23L/190155 NOSIG RMK QFE740
UEEE 272000Z 24002MPS CAVOK 04/03 Q0998 R23L/190155 NOSIG RMK QFE740
UEEE 271930Z 19002MPS CAVOK 05/03 Q0998 R23L/09//60 NOSIG RMK QFE740
UEEE 271900Z 19003MPS CAVOK 06/04 Q0998 R23L/09//60 NOSIG RMK QFE740
UEEE 271830Z 18002MPS CAVOK 06/04 Q0997 R23L/09//60 NOSIG RMK QFE739
UEEE 271800Z 18003MPS CAVOK 07/05 Q0997 R23L/09//60 NOSIG RMK QFE739
UEEE 271730Z 18003MPS CAVOK 08/05 Q0997 R23L/09//60 NOSIG RMK QFE739
UEEE 271700Z 18003MPS CAVOK 09/06 Q0997 R23L/09//60 NOSIG RMK QFE739
UEEE 271630Z 18002MPS CAVOK 09/06 Q0997 R23L/09//60 NOSIG RMK QFE739
UEEE 271600Z 19004MPS CAVOK 10/07 Q0997 R23L/09//60 NOSIG RMK QFE739
UEEE 271530Z 18003MPS CAVOK 10/07 Q0996 R23L/09//60 NOSIG RMK QFE739
UEEE 271500Z 18003MPS CAVOK 10/08 Q0996 R23L/09//60 NOSIG RMK QFE738
UEEE 271430Z 19004MPS CAVOK 11/09 Q0996 R23L/09//60 NOSIG RMK QFE738
UEEE 271400Z 19003MPS CAVOK 12/09 Q0996 R23L/09//60 NOSIG RMK QFE738
UEEE 271330Z 18003MPS 9999 SCT050CB 12/09 Q0996 R23L/09//60 NOSIG RMK QFE738
UEEE 271300Z 19004MPS 9999 SCT050CB 12/10 Q0996 R23L/09//60 NOSIG RMK QFE739
UEEE 271230Z 18002MPS 5000 FU SCT050CB 12/10 Q0996 R23L/09//60 NOSIG RMK QFE739
UEEE 271200Z 19002MPS 2400 FU SCT050CB 11/10 Q0996 R23L/09//60 NOSIG RMK QFE739
UEEE 271130Z 18002MPS 2100 FU SCT050CB 11/10 Q0996 R23L/09//60 NOSIG RMK QFE739
UEEE 271100Z 19002MPS 2100 -SHRA FU SCT050CB 11/09 Q0996 R23L/09//60 NOSIG RMK QFE739
UEEE 271030Z 12002MPS 2100 -SHRA FU SCT050CB 12/10 Q0996 R23L/09//60 NOSIG RMK QFE739
UEEE 271000Z 11002MPS 2100 -SHRA FU SCT050CB 12/10 Q0996 R23L/09//60 NOSIG RMK QFE739
UEEE 270930Z 23002MPS 2100 -SHRA FU SCT050CB 12/10 Q0997 R23L/09//60 NOSIG RMK QFE739
UEEE 270900Z 17003MPS 2100 -SHRA FU SCT050CB 13/09 Q0997 R23L/09//60 NOSIG RMK QFE739
UEEE 270830Z 15004MPS 2100 -SHRA FU SCT050CB 14/08 Q0997 R23L/09//60 NOSIG RMK QFE739
UEEE 270800Z 16004MPS 2100 -SHRA FU SCT050CB 15/07 Q0997 R23L/09//60 NOSIG RMK QFE739
UEEE 270730Z 15003MPS 2100 FU FEW050CB 16/06 Q0997 R23L/09//60 NOSIG RMK QFE739
UEEE 270700Z 14003MPS 2100 FU FEW050CB 16/06 Q0997 R23L/190160 NOSIG RMK QFE739
UEEE 270630Z 15003MPS 2100 FU FEW050CB 16/06 Q0997 R23L/190150 NOSIG RMK QFE739
UEEE 270600Z 17002MPS 2100 FU FEW050CB 16/06 Q0997 R23L/190150 NOSIG RMK QFE739
UEEE 270530Z 15003MPS 1900 R23L/1900N FU FEW050CB 16/05 Q0998 R23L/190150 NOSIG RMK QFE740
UEEE 270500Z 16003MPS 1900 R23L/1900N FU VV008 15/05 Q0998 R23L/190150 NOSIG RMK QFE740
UEEE 270430Z 14002MPS 1600 R23L/1500U FU VV005 13/06 Q0998 R23L/190150 NOSIG RMK QBB160 QFE740
UEEE 270400Z 12001MPS 1600 1200NE R23L/1200D FU VV005 13/06 Q0999 R23L/190150 NOSIG RMK QBB160 QFE740
UEEE 270330Z 14001MPS 1700 R23L/1500U FU VV005 13/05 Q0999 R23L/190150 NOSIG RMK QBB160 QFE741
UEEE 270300Z 14002MPS 1700 1200NE R23L/1200D FU VV005 12/05 Q0999 R23L/190150 NOSIG RMK QBB160 QFE741
UEEE 270230Z 13001MPS 1300 R23L/1300N FU VV005 12/05 Q1000 R23L/190150 NOSIG RMK QBB160 QFE741
UEEE 270200Z 00000MPS 1300 R23L/1300N FU VV005 11/06 Q1000 R23L/190150 NOSIG RMK QBB160 QFE742
UEEE 270130Z 15002MPS 1300 R23L/1300N FU VV005 11/05 Q1001 R23L/190150 NOSIG RMK QBB160 QFE742
UEEE 270100Z 16002MPS 1300 R23L/1300N FU VV005 11/05 Q1001 R23L/190150 NOSIG RMK QBB160 QFE742
UEEE 270030Z 17003MPS 1500 R23L/1500D FU SCT050CB 11/05 Q1002 R23L/190150 NOSIG RMK QFE742
UEEE 270000Z 16003MPS 1900 R23L/1700D FU SCT050CB 11/05 Q1002 R23L/290145 NOSIG RMK QFE743
UEEE 262330Z 16004MPS 1900 R23L/1900D FU SCT050CB 11/06 Q1002 R23L/290145 NOSIG RMK QFE743
UEEE 262300Z 16003MPS 2400 FU SCT050CB 10/07 Q1002 R23L/290145 NOSIG RMK QFE743
UEEE 262230Z 17003MPS 3200 -SHRA FU SCT050CB 10/06 Q1003 R23L/290145 NOSIG RMK QFE743
UEEE 262200Z 18003MPS 2400 FU SCT050CB 11/06 Q1003 R23L/290145 NOSIG RMK QFE744
UEEE 262130Z 17004MPS 2400 FU SCT040CB 11/05 Q1003 R23L/290145 NOSIG RMK QFE744
UEEE 262100Z 17003MPS 1900 R23L/1900U FU BKN030CB 11/05 Q1004 R23L/290145 NOSIG RMK QFE744
UEEE 262030Z 14003MPS 2100 FU BKN030CB 10/06 Q1004 R23L/290145 NOSIG RMK QFE744
UEEE 262000Z 17003MPS 5000 -SHRA BKN030CB 10/06 Q1004 R23L/09//45 NOSIG RMK QFE745
UEEE 261930Z 14003MPS 9999 -SHRA BKN040CB 10/07 Q1005 R23L/09//60 NOSIG RMK QFE745
UEEE 261900Z 16004MPS 9999 -SHRA BKN040CB 10/07 Q1005 R23L/09//60 NOSIG RMK QFE745
UEEE 261830Z 17003MPS 9999 -SHRA SCT050CB 11/07 Q1006 R23L/09//60 NOSIG RMK QFE746
UEEE 261800Z 18003MPS 9999 -SHRA SCT050CB 11/06 Q1006 R23L/09//60 NOSIG RMK QFE746
UEEE 261730Z 19007MPS 5000 FU SCT050CB 13/04 Q1006 R23L/09//60 NOSIG RMK QFE746
UEEE 261700Z 17005MPS 5000 FU SCT050CB 14/01 Q1006 R23L/09//60 NOSIG RMK QFE746
UEEE 261630Z 16005MPS 5000 FU SCT050CB 14/01 Q1006 R23L/09//60 NOSIG RMK QFE746
UEEE 261600Z 15005MPS 5000 FU SCT050CB 14/02 Q1007 R23L/09//60 NOSIG RMK QFE746
UEEE 261530Z 13004MPS 5000 FU SCT050CB 14/02 Q1007 R23L/09//60 NOSIG RMK QFE746
UEEE 261500Z 13004MPS 3200 FU SCT050CB 14/02 Q1007 R23L/09//60 NOSIG RMK QFE746
UEEE 261430Z 14004MPS 3200 FU SCT050CB 14/01 Q1007 R23L/09//60 NOSIG RMK QFE747
UEEE 261400Z 14004MPS 3200 FU SCT050CB 14/02 Q1008 R23L/09//60 NOSIG RMK QFE747
UEEE 261330Z 13004MPS 2400 FU SCT050CB 14/02 Q1008 R23L/09//60 NOSIG RMK QFE747
UEEE 261300Z 13004MPS 2400 FU SCT050CB 14/02 Q1009 R23L/09//60 NOSIG RMK QFE748
UEEE 261230Z 13005MPS 2400 FU SCT050CB 14/02 Q1009 R23L/09//60 NOSIG RMK QFE748
UEEE 261200Z 13004MPS 2400 FU SCT050CB 14/02 Q1009 R23L/09//60 NOSIG RMK QFE748
UEEE 261130Z 12004MPS 2400 -SHRA FU SCT050CB 14/03 Q1010 R23L/09//60 NOSIG RMK QFE749
UEEE 261100Z 13004MPS 2400 -SHRA FU SCT050CB 14/03 Q1010 R23L/09//60 NOSIG RMK QFE749
UEEE 261030Z 13002MPS 1800 R23L/P2000N FU NSC 14/03 Q1011 R23L/09//60 NOSIG RMK QFE749
UEEE 261000Z 14004MPS 1800 R23L/P2000N FU NSC 14/03 Q1011 R23L/09//60 NOSIG RMK QFE749